Nome の空港の天気 - METARとTAF

Nome, Nome Airport ( PAOM / OME ) - アメリカ アラスカ州Nome
飛行場実況気象(Metar)
観測時間04/26 03:09 AKDT (04/26 11:09 UTC)
風向・風速南東 8m/s
視程4000m
天気現象弱い雪 もや
少しの雲 雲底高度 210m
全天の8割程度の雲 雲底高度 370m
全天を覆う雲 雲底高度 1070m
気温-1.7℃
湿度100%
気圧1001hPa
METARPAOM 261109Z AUTO 14015KT 2 1/2SM -SN BR FEW007 BKN012 OVC035 M02/M02 A2955 RMK AO2 P0000 T10171017 TSNO
過去の天気等 Google飛行場航空写真 Wunderground天気予報

過去48時間のMETAR

飛行場予報(TAF)
発表時間: 4/25 21:21 AKDT (4/26 05:21 UTC)
予報対象時間: 25日22時 AKDT ~ 26日22時 AKDT
風向・風速南南東 7m/s
視程4,830m
天気現象弱いしゅう雨雪 もや
全天を覆う雲 雲底高度 370m
26日2時 AKDT から
風向・風速南南東 11m/s 瞬間風速 14m/s
視程3,220m
天気現象弱いしゅう雪 もや
全天を覆う雲 雲底高度 210m
PAOM 260521Z 2606/2706 15014KT 3SM -SHRASN BR OVC012
FM261000 15021G28KT 2SM -SHSN BR OVC007